sensor_id;sensor_type;location;lat;lon;timestamp;P1;durP1;ratioP1;P2;durP2;ratioP2
63499;SDS011;49654;51.142;14.924;2023-05-20T00:01:02;23.50;;;20.00;;
63499;SDS011;49654;51.142;14.924;2023-05-20T00:03:29;23.95;;;19.45;;
63499;SDS011;49654;51.142;14.924;2023-05-20T00:05:56;25.75;;;20.50;;
63499;SDS011;49654;51.142;14.924;2023-05-20T00:08:23;23.77;;;18.88;;
63499;SDS011;49654;51.142;14.924;2023-05-20T00:10:51;27.25;;;20.38;;
63499;SDS011;49654;51.142;14.924;2023-05-20T00:13:18;24.13;;;19.58;;
63499;SDS011;49654;51.142;14.924;2023-05-20T00:15:45;23.90;;;19.73;;
63499;SDS011;49654;51.142;14.924;2023-05-20T00:18:12;21.27;;;18.17;;
63499;SDS011;49654;51.142;14.924;2023-05-20T00:20:39;23.92;;;19.83;;
63499;SDS011;49654;51.142;14.924;2023-05-20T00:23:06;22.10;;;19.27;;
63499;SDS011;49654;51.142;14.924;2023-05-20T00:25:33;21.80;;;18.85;;
63499;SDS011;49654;51.142;14.924;2023-05-20T00:28:01;24.55;;;19.15;;
63499;SDS011;49654;51.142;14.924;2023-05-20T00:30:28;24.30;;;19.00;;
63499;SDS011;49654;51.142;14.924;2023-05-20T00:32:55;23.45;;;19.77;;
63499;SDS011;49654;51.142;14.924;2023-05-20T00:35:21;25.73;;;20.33;;
63499;SDS011;49654;51.142;14.924;2023-05-20T00:37:48;23.70;;;20.27;;
63499;SDS011;49654;51.142;14.924;2023-05-20T00:40:15;23.15;;;19.83;;
63499;SDS011;49654;51.142;14.924;2023-05-20T00:42:42;27.35;;;22.08;;
63499;SDS011;49654;51.142;14.924;2023-05-20T00:45:11;27.60;;;22.42;;
63499;SDS011;49654;51.142;14.924;2023-05-20T00:47:38;27.30;;;21.48;;
63499;SDS011;49654;51.142;14.924;2023-05-20T00:50:05;28.20;;;21.58;;
63499;SDS011;49654;51.142;14.924;2023-05-20T00:52:34;25.20;;;21.77;;
63499;SDS011;49654;51.142;14.924;2023-05-20T00:55:01;28.98;;;22.55;;
63499;SDS011;49654;51.142;14.924;2023-05-20T00:57:29;26.52;;;21.38;;
63499;SDS011;49654;51.142;14.924;2023-05-20T00:59:56;24.65;;;20.77;;
63499;SDS011;49654;51.142;14.924;2023-05-20T01:02:24;24.27;;;19.90;;
63499;SDS011;49654;51.142;14.924;2023-05-20T01:04:51;23.52;;;20.25;;
63499;SDS011;49654;51.142;14.924;2023-05-20T01:07:21;23.20;;;19.73;;
63499;SDS011;49654;51.142;14.924;2023-05-20T01:09:48;26.75;;;19.58;;
63499;SDS011;49654;51.142;14.924;2023-05-20T01:12:17;23.05;;;19.58;;
63499;SDS011;49654;51.142;14.924;2023-05-20T01:14:49;21.98;;;19.40;;
63499;SDS011;49654;51.142;14.924;2023-05-20T01:17:25;22.02;;;19.00;;
63499;SDS011;49654;51.142;14.924;2023-05-20T01:19:57;22.10;;;18.38;;
63499;SDS011;49654;51.142;14.924;2023-05-20T01:22:27;24.95;;;18.52;;
63499;SDS011;49654;51.142;14.924;2023-05-20T01:24:54;22.33;;;18.73;;
63499;SDS011;49654;51.142;14.924;2023-05-20T01:27:21;20.73;;;18.33;;
63499;SDS011;49654;51.142;14.924;2023-05-20T01:29:49;24.63;;;20.45;;
63499;SDS011;49654;51.142;14.924;2023-05-20T01:32:18;23.02;;;19.58;;
63499;SDS011;49654;51.142;14.924;2023-05-20T01:34:48;22.30;;;19.20;;
63499;SDS011;49654;51.142;14.924;2023-05-20T01:37:16;20.35;;;18.23;;
63499;SDS011;49654;51.142;14.924;2023-05-20T01:39:46;23.38;;;19.80;;
63499;SDS011;49654;51.142;14.924;2023-05-20T01:42:15;25.13;;;20.67;;
63499;SDS011;49654;51.142;14.924;2023-05-20T01:44:43;23.40;;;18.85;;
63499;SDS011;49654;51.142;14.924;2023-05-20T01:47:10;23.05;;;19.85;;
63499;SDS011;49654;51.142;14.924;2023-05-20T01:49:37;22.27;;;18.20;;
63499;SDS011;49654;51.142;14.924;2023-05-20T01:52:04;25.90;;;22.00;;
63499;SDS011;49654;51.142;14.924;2023-05-20T01:54:31;22.90;;;20.42;;
63499;SDS011;49654;51.142;14.924;2023-05-20T01:56:59;25.30;;;20.25;;
63499;SDS011;49654;51.142;14.924;2023-05-20T01:59:27;24.63;;;21.92;;
63499;SDS011;49654;51.142;14.924;2023-05-20T02:01:54;27.55;;;22.85;;
63499;SDS011;49654;51.142;14.924;2023-05-20T02:04:21;28.58;;;23.75;;
63499;SDS011;49654;51.142;14.924;2023-05-20T02:06:48;27.83;;;22.35;;
63499;SDS011;49654;51.142;14.924;2023-05-20T02:09:14;29.90;;;22.08;;
63499;SDS011;49654;51.142;14.924;2023-05-20T02:11:43;28.48;;;23.10;;
63499;SDS011;49654;51.142;14.924;2023-05-20T02:14:12;27.25;;;23.20;;
63499;SDS011;49654;51.142;14.924;2023-05-20T02:16:38;28.90;;;23.42;;
63499;SDS011;49654;51.142;14.924;2023-05-20T02:19:05;29.30;;;24.75;;
63499;SDS011;49654;51.142;14.924;2023-05-20T02:21:37;31.60;;;25.17;;
63499;SDS011;49654;51.142;14.924;2023-05-20T02:24:05;29.70;;;23.67;;
63499;SDS011;49654;51.142;14.924;2023-05-20T02:26:32;30.23;;;24.90;;
63499;SDS011;49654;51.142;14.924;2023-05-20T02:28:59;32.28;;;24.80;;
63499;SDS011;49654;51.142;14.924;2023-05-20T02:31:27;30.48;;;25.05;;
63499;SDS011;49654;51.142;14.924;2023-05-20T02:33:54;31.55;;;26.13;;
63499;SDS011;49654;51.142;14.924;2023-05-20T02:36:21;30.20;;;25.42;;
63499;SDS011;49654;51.142;14.924;2023-05-20T02:38:48;38.67;;;27.85;;
63499;SDS011;49654;51.142;14.924;2023-05-20T02:41:15;34.65;;;26.05;;
63499;SDS011;49654;51.142;14.924;2023-05-20T02:43:42;34.10;;;27.35;;
63499;SDS011;49654;51.142;14.924;2023-05-20T02:46:09;33.55;;;26.77;;
63499;SDS011;49654;51.142;14.924;2023-05-20T02:48:38;36.60;;;27.73;;
63499;SDS011;49654;51.142;14.924;2023-05-20T02:51:05;38.35;;;29.13;;
63499;SDS011;49654;51.142;14.924;2023-05-20T02:53:31;34.30;;;28.30;;
63499;SDS011;49654;51.142;14.924;2023-05-20T02:55:58;38.75;;;29.83;;
63499;SDS011;49654;51.142;14.924;2023-05-20T02:58:26;35.70;;;28.33;;
63499;SDS011;49654;51.142;14.924;2023-05-20T03:00:53;35.45;;;28.92;;
63499;SDS011;49654;51.142;14.924;2023-05-20T03:03:22;33.65;;;27.65;;
63499;SDS011;49654;51.142;14.924;2023-05-20T03:05:50;43.90;;;31.50;;
63499;SDS011;49654;51.142;14.924;2023-05-20T03:08:18;38.97;;;30.45;;
63499;SDS011;49654;51.142;14.924;2023-05-20T03:10:46;36.83;;;28.70;;
63499;SDS011;49654;51.142;14.924;2023-05-20T03:13:13;38.03;;;30.15;;
63499;SDS011;49654;51.142;14.924;2023-05-20T03:15:40;40.20;;;31.23;;
63499;SDS011;49654;51.142;14.924;2023-05-20T03:18:09;40.92;;;31.90;;
63499;SDS011;49654;51.142;14.924;2023-05-20T03:20:37;44.38;;;34.33;;
63499;SDS011;49654;51.142;14.924;2023-05-20T03:23:06;42.38;;;32.20;;
63499;SDS011;49654;51.142;14.924;2023-05-20T03:25:33;41.35;;;32.88;;
63499;SDS011;49654;51.142;14.924;2023-05-20T03:28:00;42.75;;;32.88;;
63499;SDS011;49654;51.142;14.924;2023-05-20T03:30:28;46.63;;;35.03;;
63499;SDS011;49654;51.142;14.924;2023-05-20T03:32:55;37.92;;;30.10;;
63499;SDS011;49654;51.142;14.924;2023-05-20T03:35:23;45.50;;;33.90;;
63499;SDS011;49654;51.142;14.924;2023-05-20T03:37:50;42.90;;;33.10;;
63499;SDS011;49654;51.142;14.924;2023-05-20T03:40:19;43.28;;;32.92;;
63499;SDS011;49654;51.142;14.924;2023-05-20T03:42:46;39.10;;;31.77;;
63499;SDS011;49654;51.142;14.924;2023-05-20T03:45:14;39.25;;;31.15;;
63499;SDS011;49654;51.142;14.924;2023-05-20T03:47:41;43.53;;;34.15;;
63499;SDS011;49654;51.142;14.924;2023-05-20T03:50:08;40.05;;;30.48;;
63499;SDS011;49654;51.142;14.924;2023-05-20T03:52:36;42.72;;;33.63;;
63499;SDS011;49654;51.142;14.924;2023-05-20T03:55:03;39.38;;;32.03;;
63499;SDS011;49654;51.142;14.924;2023-05-20T03:57:32;41.15;;;31.70;;
63499;SDS011;49654;51.142;14.924;2023-05-20T03:59:59;42.42;;;33.20;;
63499;SDS011;49654;51.142;14.924;2023-05-20T04:02:26;46.05;;;34.38;;
63499;SDS011;49654;51.142;14.924;2023-05-20T04:04:53;41.83;;;32.55;;
63499;SDS011;49654;51.142;14.924;2023-05-20T04:07:22;39.20;;;31.65;;
63499;SDS011;49654;51.142;14.924;2023-05-20T04:09:49;38.45;;;30.38;;
63499;SDS011;49654;51.142;14.924;2023-05-20T04:12:16;40.70;;;31.45;;
63499;SDS011;49654;51.142;14.924;2023-05-20T04:14:46;40.45;;;31.27;;
63499;SDS011;49654;51.142;14.924;2023-05-20T04:17:14;40.28;;;31.23;;
63499;SDS011;49654;51.142;14.924;2023-05-20T04:19:41;39.35;;;31.50;;
63499;SDS011;49654;51.142;14.924;2023-05-20T04:22:09;36.45;;;29.83;;
63499;SDS011;49654;51.142;14.924;2023-05-20T04:24:36;34.92;;;29.40;;
63499;SDS011;49654;51.142;14.924;2023-05-20T04:27:03;35.03;;;29.98;;
63499;SDS011;49654;51.142;14.924;2023-05-20T04:29:30;41.90;;;28.45;;
63499;SDS011;49654;51.142;14.924;2023-05-20T04:32:00;36.90;;;29.75;;
63499;SDS011;49654;51.142;14.924;2023-05-20T04:34:28;35.10;;;29.23;;
63499;SDS011;49654;51.142;14.924;2023-05-20T04:36:59;35.55;;;29.80;;
63499;SDS011;49654;51.142;14.924;2023-05-20T04:39:26;34.10;;;28.63;;
63499;SDS011;49654;51.142;14.924;2023-05-20T04:41:53;37.40;;;30.17;;
63499;SDS011;49654;51.142;14.924;2023-05-20T04:44:20;42.05;;;30.73;;
63499;SDS011;49654;51.142;14.924;2023-05-20T04:46:49;36.45;;;28.63;;
63499;SDS011;49654;51.142;14.924;2023-05-20T04:49:17;37.65;;;29.42;;
63499;SDS011;49654;51.142;14.924;2023-05-20T04:51:44;36.78;;;28.15;;
63499;SDS011;49654;51.142;14.924;2023-05-20T04:54:12;38.33;;;28.23;;
63499;SDS011;49654;51.142;14.924;2023-05-20T04:56:39;35.70;;;28.75;;
63499;SDS011;49654;51.142;14.924;2023-05-20T04:59:06;34.53;;;28.85;;
63499;SDS011;49654;51.142;14.924;2023-05-20T05:01:34;34.90;;;27.10;;
63499;SDS011;49654;51.142;14.924;2023-05-20T05:04:01;33.85;;;27.38;;
63499;SDS011;49654;51.142;14.924;2023-05-20T05:06:29;34.83;;;27.88;;
63499;SDS011;49654;51.142;14.924;2023-05-20T05:08:56;32.70;;;26.50;;
63499;SDS011;49654;51.142;14.924;2023-05-20T05:11:23;34.78;;;27.45;;
63499;SDS011;49654;51.142;14.924;2023-05-20T05:13:51;33.17;;;27.75;;
63499;SDS011;49654;51.142;14.924;2023-05-20T05:16:18;32.70;;;27.33;;
63499;SDS011;49654;51.142;14.924;2023-05-20T05:18:44;31.48;;;25.88;;
63499;SDS011;49654;51.142;14.924;2023-05-20T05:21:11;31.42;;;25.88;;
63499;SDS011;49654;51.142;14.924;2023-05-20T05:23:41;32.05;;;26.60;;
63499;SDS011;49654;51.142;14.924;2023-05-20T05:26:08;32.33;;;26.77;;
63499;SDS011;49654;51.142;14.924;2023-05-20T05:28:35;31.52;;;25.75;;
63499;SDS011;49654;51.142;14.924;2023-05-20T05:31:02;34.33;;;26.63;;
63499;SDS011;49654;51.142;14.924;2023-05-20T05:33:29;32.30;;;26.80;;
63499;SDS011;49654;51.142;14.924;2023-05-20T05:35:56;35.63;;;25.70;;
63499;SDS011;49654;51.142;14.924;2023-05-20T05:38:23;32.15;;;26.30;;
63499;SDS011;49654;51.142;14.924;2023-05-20T05:40:52;32.95;;;27.17;;
63499;SDS011;49654;51.142;14.924;2023-05-20T05:43:19;35.35;;;26.65;;
63499;SDS011;49654;51.142;14.924;2023-05-20T05:45:45;32.67;;;25.77;;
63499;SDS011;49654;51.142;14.924;2023-05-20T05:48:12;34.78;;;26.63;;
63499;SDS011;49654;51.142;14.924;2023-05-20T05:50:42;32.65;;;25.65;;
63499;SDS011;49654;51.142;14.924;2023-05-20T05:53:10;37.92;;;27.20;;
63499;SDS011;49654;51.142;14.924;2023-05-20T05:55:37;34.40;;;27.00;;
63499;SDS011;49654;51.142;14.924;2023-05-20T05:58:05;30.85;;;25.45;;
63499;SDS011;49654;51.142;14.924;2023-05-20T06:00:32;34.15;;;26.48;;
63499;SDS011;49654;51.142;14.924;2023-05-20T06:02:59;31.98;;;25.65;;
63499;SDS011;49654;51.142;14.924;2023-05-20T06:05:26;33.33;;;24.98;;
63499;SDS011;49654;51.142;14.924;2023-05-20T06:07:53;31.15;;;26.15;;
63499;SDS011;49654;51.142;14.924;2023-05-20T06:10:20;33.50;;;27.20;;
63499;SDS011;49654;51.142;14.924;2023-05-20T06:12:47;33.45;;;26.02;;
63499;SDS011;49654;51.142;14.924;2023-05-20T06:15:15;32.28;;;25.27;;
63499;SDS011;49654;51.142;14.924;2023-05-20T06:17:43;33.17;;;24.30;;
63499;SDS011;49654;51.142;14.924;2023-05-20T06:20:10;30.52;;;23.50;;
63499;SDS011;49654;51.142;14.924;2023-05-20T06:22:37;29.73;;;23.65;;
63499;SDS011;49654;51.142;14.924;2023-05-20T06:25:04;29.60;;;24.65;;
63499;SDS011;49654;51.142;14.924;2023-05-20T06:27:32;31.48;;;24.48;;
63499;SDS011;49654;51.142;14.924;2023-05-20T06:29:59;29.30;;;24.13;;
63499;SDS011;49654;51.142;14.924;2023-05-20T06:32:27;26.88;;;23.67;;
63499;SDS011;49654;51.142;14.924;2023-05-20T06:34:54;26.13;;;21.77;;
63499;SDS011;49654;51.142;14.924;2023-05-20T06:37:21;26.98;;;22.17;;
63499;SDS011;49654;51.142;14.924;2023-05-20T06:39:49;26.75;;;21.92;;
63499;SDS011;49654;51.142;14.924;2023-05-20T06:42:18;32.38;;;23.98;;
63499;SDS011;49654;51.142;14.924;2023-05-20T06:44:45;29.83;;;24.33;;
63499;SDS011;49654;51.142;14.924;2023-05-20T06:47:13;27.73;;;21.45;;
63499;SDS011;49654;51.142;14.924;2023-05-20T06:49:42;28.15;;;22.73;;
63499;SDS011;49654;51.142;14.924;2023-05-20T06:52:10;26.63;;;22.08;;
63499;SDS011;49654;51.142;14.924;2023-05-20T06:54:37;30.38;;;23.65;;
63499;SDS011;49654;51.142;14.924;2023-05-20T06:57:06;26.65;;;22.17;;
63499;SDS011;49654;51.142;14.924;2023-05-20T06:59:34;28.92;;;23.52;;
63499;SDS011;49654;51.142;14.924;2023-05-20T07:02:01;30.77;;;23.10;;
63499;SDS011;49654;51.142;14.924;2023-05-20T07:04:28;31.55;;;23.92;;
63499;SDS011;49654;51.142;14.924;2023-05-20T07:06:57;29.70;;;23.70;;
63499;SDS011;49654;51.142;14.924;2023-05-20T07:09:23;31.77;;;23.73;;
63499;SDS011;49654;51.142;14.924;2023-05-20T07:11:50;30.42;;;24.25;;
63499;SDS011;49654;51.142;14.924;2023-05-20T07:14:17;28.10;;;23.05;;
63499;SDS011;49654;51.142;14.924;2023-05-20T07:16:44;29.63;;;22.90;;
63499;SDS011;49654;51.142;14.924;2023-05-20T07:19:11;26.75;;;22.58;;
63499;SDS011;49654;51.142;14.924;2023-05-20T07:21:38;27.88;;;22.75;;
63499;SDS011;49654;51.142;14.924;2023-05-20T07:24:06;27.95;;;22.63;;
63499;SDS011;49654;51.142;14.924;2023-05-20T07:26:33;26.60;;;21.52;;
63499;SDS011;49654;51.142;14.924;2023-05-20T07:29:01;28.45;;;22.77;;
63499;SDS011;49654;51.142;14.924;2023-05-20T07:31:29;28.05;;;21.98;;
63499;SDS011;49654;51.142;14.924;2023-05-20T07:33:56;28.08;;;21.75;;
63499;SDS011;49654;51.142;14.924;2023-05-20T07:36:25;30.10;;;22.15;;
63499;SDS011;49654;51.142;14.924;2023-05-20T07:38:52;31.15;;;23.08;;
63499;SDS011;49654;51.142;14.924;2023-05-20T07:41:21;27.42;;;22.05;;
63499;SDS011;49654;51.142;14.924;2023-05-20T07:43:48;29.85;;;22.38;;
63499;SDS011;49654;51.142;14.924;2023-05-20T07:46:15;30.88;;;22.70;;
63499;SDS011;49654;51.142;14.924;2023-05-20T07:48:42;40.22;;;23.30;;
63499;SDS011;49654;51.142;14.924;2023-05-20T07:51:09;27.88;;;21.25;;
63499;SDS011;49654;51.142;14.924;2023-05-20T07:53:36;29.50;;;22.90;;
63499;SDS011;49654;51.142;14.924;2023-05-20T07:56:04;29.80;;;20.58;;
63499;SDS011;49654;51.142;14.924;2023-05-20T07:58:32;42.67;;;21.85;;
63499;SDS011;49654;51.142;14.924;2023-05-20T08:00:59;26.08;;;20.88;;
63499;SDS011;49654;51.142;14.924;2023-05-20T08:03:26;25.33;;;20.17;;
63499;SDS011;49654;51.142;14.924;2023-05-20T08:05:53;23.42;;;19.38;;
63499;SDS011;49654;51.142;14.924;2023-05-20T08:08:20;22.92;;;19.50;;
63499;SDS011;49654;51.142;14.924;2023-05-20T08:10:47;25.40;;;19.95;;
63499;SDS011;49654;51.142;14.924;2023-05-20T08:13:14;25.33;;;19.63;;
63499;SDS011;49654;51.142;14.924;2023-05-20T08:15:42;25.73;;;20.65;;
63499;SDS011;49654;51.142;14.924;2023-05-20T08:18:09;25.35;;;19.70;;
63499;SDS011;49654;51.142;14.924;2023-05-20T08:20:36;30.85;;;20.77;;
63499;SDS011;49654;51.142;14.924;2023-05-20T08:23:03;26.33;;;20.08;;
63499;SDS011;49654;51.142;14.924;2023-05-20T08:25:30;25.85;;;19.77;;
63499;SDS011;49654;51.142;14.924;2023-05-20T08:27:57;26.98;;;21.55;;
63499;SDS011;49654;51.142;14.924;2023-05-20T08:30:25;23.67;;;19.52;;
63499;SDS011;49654;51.142;14.924;2023-05-20T08:32:54;25.63;;;20.00;;
63499;SDS011;49654;51.142;14.924;2023-05-20T08:35:21;24.23;;;20.02;;
63499;SDS011;49654;51.142;14.924;2023-05-20T08:37:48;24.63;;;21.05;;
63499;SDS011;49654;51.142;14.924;2023-05-20T08:40:15;25.77;;;21.02;;
63499;SDS011;49654;51.142;14.924;2023-05-20T08:42:42;27.90;;;20.77;;
63499;SDS011;49654;51.142;14.924;2023-05-20T08:45:10;26.17;;;20.38;;
63499;SDS011;49654;51.142;14.924;2023-05-20T08:47:39;25.05;;;19.73;;
63499;SDS011;49654;51.142;14.924;2023-05-20T08:50:10;24.50;;;20.38;;
63499;SDS011;49654;51.142;14.924;2023-05-20T08:52:41;24.08;;;19.70;;
63499;SDS011;49654;51.142;14.924;2023-05-20T08:55:10;26.13;;;20.35;;
63499;SDS011;49654;51.142;14.924;2023-05-20T08:57:41;27.83;;;20.65;;
63499;SDS011;49654;51.142;14.924;2023-05-20T09:00:11;25.63;;;20.13;;
63499;SDS011;49654;51.142;14.924;2023-05-20T09:02:41;27.33;;;21.38;;
63499;SDS011;49654;51.142;14.924;2023-05-20T09:05:10;27.08;;;20.08;;
63499;SDS011;49654;51.142;14.924;2023-05-20T09:07:37;23.95;;;19.13;;
63499;SDS011;49654;51.142;14.924;2023-05-20T09:10:04;22.50;;;18.95;;
63499;SDS011;49654;51.142;14.924;2023-05-20T09:12:32;23.65;;;20.00;;
63499;SDS011;49654;51.142;14.924;2023-05-20T09:14:59;25.08;;;21.25;;
63499;SDS011;49654;51.142;14.924;2023-05-20T09:17:25;24.00;;;20.30;;
63499;SDS011;49654;51.142;14.924;2023-05-20T09:19:53;25.13;;;19.88;;
63499;SDS011;49654;51.142;14.924;2023-05-20T09:22:24;24.52;;;19.90;;
63499;SDS011;49654;51.142;14.924;2023-05-20T09:24:52;23.60;;;18.77;;
63499;SDS011;49654;51.142;14.924;2023-05-20T09:27:20;24.73;;;19.58;;
63499;SDS011;49654;51.142;14.924;2023-05-20T09:29:48;27.30;;;20.55;;
63499;SDS011;49654;51.142;14.924;2023-05-20T09:32:16;27.85;;;21.05;;
63499;SDS011;49654;51.142;14.924;2023-05-20T09:34:44;23.10;;;19.67;;
63499;SDS011;49654;51.142;14.924;2023-05-20T09:37:13;24.15;;;20.13;;
63499;SDS011;49654;51.142;14.924;2023-05-20T09:39:42;23.58;;;19.88;;
63499;SDS011;49654;51.142;14.924;2023-05-20T09:42:17;23.48;;;20.20;;
63499;SDS011;49654;51.142;14.924;2023-05-20T09:44:50;21.17;;;18.38;;
63499;SDS011;49654;51.142;14.924;2023-05-20T09:47:19;22.85;;;19.08;;
63499;SDS011;49654;51.142;14.924;2023-05-20T09:49:46;25.77;;;19.10;;
63499;SDS011;49654;51.142;14.924;2023-05-20T09:52:13;26.40;;;20.95;;
63499;SDS011;49654;51.142;14.924;2023-05-20T09:54:43;25.15;;;20.55;;
63499;SDS011;49654;51.142;14.924;2023-05-20T09:57:11;24.17;;;19.00;;
63499;SDS011;49654;51.142;14.924;2023-05-20T09:59:38;22.33;;;18.23;;
63499;SDS011;49654;51.142;14.924;2023-05-20T10:02:06;24.15;;;19.52;;
63499;SDS011;49654;51.142;14.924;2023-05-20T10:04:34;24.05;;;19.90;;
63499;SDS011;49654;51.142;14.924;2023-05-20T10:07:10;22.25;;;19.00;;
63499;SDS011;49654;51.142;14.924;2023-05-20T10:10:02;24.08;;;20.00;;
63499;SDS011;49654;51.142;14.924;2023-05-20T10:12:41;22.48;;;19.20;;
63499;SDS011;49654;51.142;14.924;2023-05-20T10:15:17;21.52;;;18.55;;
63499;SDS011;49654;51.142;14.924;2023-05-20T10:17:53;23.75;;;19.63;;
63499;SDS011;49654;51.142;14.924;2023-05-20T10:20:26;23.73;;;19.13;;
63499;SDS011;49654;51.142;14.924;2023-05-20T10:22:54;22.88;;;18.95;;
63499;SDS011;49654;51.142;14.924;2023-05-20T10:25:25;24.75;;;19.52;;
63499;SDS011;49654;51.142;14.924;2023-05-20T10:28:03;24.25;;;20.55;;
63499;SDS011;49654;51.142;14.924;2023-05-20T10:30:32;25.25;;;20.27;;
63499;SDS011;49654;51.142;14.924;2023-05-20T10:33:02;23.30;;;19.55;;
63499;SDS011;49654;51.142;14.924;2023-05-20T10:35:29;26.48;;;20.50;;
63499;SDS011;49654;51.142;14.924;2023-05-20T10:38:05;23.92;;;20.02;;
63499;SDS011;49654;51.142;14.924;2023-05-20T10:40:35;25.85;;;20.17;;
63499;SDS011;49654;51.142;14.924;2023-05-20T10:43:08;28.73;;;21.67;;
63499;SDS011;49654;51.142;14.924;2023-05-20T10:45:46;22.50;;;18.83;;
63499;SDS011;49654;51.142;14.924;2023-05-20T10:48:19;23.10;;;20.15;;
63499;SDS011;49654;51.142;14.924;2023-05-20T10:50:46;23.65;;;20.10;;
63499;SDS011;49654;51.142;14.924;2023-05-20T10:53:13;26.02;;;20.20;;
63499;SDS011;49654;51.142;14.924;2023-05-20T10:55:47;20.40;;;17.80;;
63499;SDS011;49654;51.142;14.924;2023-05-20T10:58:16;23.40;;;19.48;;
63499;SDS011;49654;51.142;14.924;2023-05-20T11:00:44;24.52;;;19.63;;
63499;SDS011;49654;51.142;14.924;2023-05-20T11:03:13;24.73;;;18.58;;
63499;SDS011;49654;51.142;14.924;2023-05-20T11:05:41;21.98;;;18.42;;
63499;SDS011;49654;51.142;14.924;2023-05-20T11:08:08;21.40;;;17.80;;
63499;SDS011;49654;51.142;14.924;2023-05-20T11:10:35;20.38;;;17.13;;
63499;SDS011;49654;51.142;14.924;2023-05-20T11:13:04;20.48;;;16.67;;
63499;SDS011;49654;51.142;14.924;2023-05-20T11:15:33;21.70;;;16.98;;
63499;SDS011;49654;51.142;14.924;2023-05-20T11:18:02;20.73;;;16.48;;
63499;SDS011;49654;51.142;14.924;2023-05-20T11:20:29;17.80;;;15.63;;
63499;SDS011;49654;51.142;14.924;2023-05-20T11:22:59;18.27;;;15.60;;
63499;SDS011;49654;51.142;14.924;2023-05-20T11:25:28;16.67;;;14.90;;
63499;SDS011;49654;51.142;14.924;2023-05-20T11:27:55;19.58;;;15.20;;
63499;SDS011;49654;51.142;14.924;2023-05-20T11:30:23;19.30;;;14.75;;
63499;SDS011;49654;51.142;14.924;2023-05-20T11:32:57;18.13;;;15.93;;
63499;SDS011;49654;51.142;14.924;2023-05-20T11:35:25;16.05;;;14.35;;
63499;SDS011;49654;51.142;14.924;2023-05-20T11:37:55;18.20;;;15.30;;
63499;SDS011;49654;51.142;14.924;2023-05-20T11:40:23;20.67;;;17.05;;
63499;SDS011;49654;51.142;14.924;2023-05-20T11:42:55;19.95;;;17.13;;
63499;SDS011;49654;51.142;14.924;2023-05-20T11:45:24;16.88;;;14.35;;
63499;SDS011;49654;51.142;14.924;2023-05-20T11:47:58;15.98;;;14.27;;
63499;SDS011;49654;51.142;14.924;2023-05-20T11:50:26;16.83;;;14.10;;
63499;SDS011;49654;51.142;14.924;2023-05-20T11:52:57;16.85;;;13.93;;
63499;SDS011;49654;51.142;14.924;2023-05-20T11:55:24;15.55;;;13.52;;
63499;SDS011;49654;51.142;14.924;2023-05-20T11:57:51;14.90;;;13.23;;
63499;SDS011;49654;51.142;14.924;2023-05-20T12:00:21;16.15;;;13.85;;
63499;SDS011;49654;51.142;14.924;2023-05-20T12:02:50;18.48;;;16.45;;
63499;SDS011;49654;51.142;14.924;2023-05-20T12:05:17;16.98;;;15.27;;
63499;SDS011;49654;51.142;14.924;2023-05-20T12:07:44;20.50;;;17.23;;
63499;SDS011;49654;51.142;14.924;2023-05-20T12:10:11;18.98;;;17.05;;
63499;SDS011;49654;51.142;14.924;2023-05-20T12:12:39;21.95;;;17.00;;
63499;SDS011;49654;51.142;14.924;2023-05-20T12:15:06;22.33;;;17.38;;
63499;SDS011;49654;51.142;14.924;2023-05-20T12:17:42;24.65;;;18.40;;
63499;SDS011;49654;51.142;14.924;2023-05-20T12:20:13;19.45;;;15.85;;
63499;SDS011;49654;51.142;14.924;2023-05-20T12:22:41;18.45;;;14.23;;
63499;SDS011;49654;51.142;14.924;2023-05-20T12:25:09;16.15;;;13.15;;
63499;SDS011;49654;51.142;14.924;2023-05-20T12:27:38;18.85;;;16.23;;
63499;SDS011;49654;51.142;14.924;2023-05-20T12:30:06;18.73;;;16.52;;
63499;SDS011;49654;51.142;14.924;2023-05-20T12:32:34;21.05;;;16.30;;
63499;SDS011;49654;51.142;14.924;2023-05-20T12:35:01;17.70;;;15.90;;
63499;SDS011;49654;51.142;14.924;2023-05-20T12:37:29;17.92;;;16.13;;
63499;SDS011;49654;51.142;14.924;2023-05-20T12:39:56;19.45;;;16.88;;
63499;SDS011;49654;51.142;14.924;2023-05-20T12:42:23;21.17;;;16.55;;
63499;SDS011;49654;51.142;14.924;2023-05-20T12:44:50;16.48;;;14.75;;
63499;SDS011;49654;51.142;14.924;2023-05-20T12:47:17;19.05;;;17.02;;
63499;SDS011;49654;51.142;14.924;2023-05-20T12:49:44;20.25;;;16.88;;
63499;SDS011;49654;51.142;14.924;2023-05-20T12:52:11;15.48;;;13.85;;
63499;SDS011;49654;51.142;14.924;2023-05-20T12:54:39;15.57;;;14.00;;
63499;SDS011;49654;51.142;14.924;2023-05-20T12:57:06;18.25;;;15.18;;
63499;SDS011;49654;51.142;14.924;2023-05-20T12:59:33;17.65;;;15.68;;
63499;SDS011;49654;51.142;14.924;2023-05-20T13:02:00;18.38;;;16.48;;
63499;SDS011;49654;51.142;14.924;2023-05-20T13:04:27;17.75;;;15.80;;
63499;SDS011;49654;51.142;14.924;2023-05-20T13:06:54;20.48;;;17.63;;
63499;SDS011;49654;51.142;14.924;2023-05-20T13:09:21;22.10;;;17.90;;
63499;SDS011;49654;51.142;14.924;2023-05-20T13:11:49;21.30;;;19.08;;
63499;SDS011;49654;51.142;14.924;2023-05-20T13:14:16;19.60;;;16.85;;
63499;SDS011;49654;51.142;14.924;2023-05-20T13:16:43;18.30;;;16.10;;
63499;SDS011;49654;51.142;14.924;2023-05-20T13:19:10;20.88;;;16.48;;
63499;SDS011;49654;51.142;14.924;2023-05-20T13:21:37;18.48;;;16.58;;
63499;SDS011;49654;51.142;14.924;2023-05-20T13:24:04;19.25;;;15.50;;
63499;SDS011;49654;51.142;14.924;2023-05-20T13:26:31;17.70;;;15.45;;
63499;SDS011;49654;51.142;14.924;2023-05-20T13:28:59;17.02;;;15.18;;
63499;SDS011;49654;51.142;14.924;2023-05-20T13:31:27;19.75;;;17.70;;
63499;SDS011;49654;51.142;14.924;2023-05-20T13:33:53;18.75;;;16.88;;
63499;SDS011;49654;51.142;14.924;2023-05-20T13:36:23;20.52;;;17.00;;
63499;SDS011;49654;51.142;14.924;2023-05-20T13:38:50;17.98;;;16.08;;
63499;SDS011;49654;51.142;14.924;2023-05-20T13:41:17;19.42;;;16.25;;
63499;SDS011;49654;51.142;14.924;2023-05-20T13:43:44;15.77;;;14.18;;
63499;SDS011;49654;51.142;14.924;2023-05-20T13:46:13;17.73;;;14.82;;
63499;SDS011;49654;51.142;14.924;2023-05-20T13:48:39;18.75;;;16.38;;
63499;SDS011;49654;51.142;14.924;2023-05-20T13:51:06;18.02;;;16.20;;
63499;SDS011;49654;51.142;14.924;2023-05-20T13:53:33;19.05;;;15.77;;
63499;SDS011;49654;51.142;14.924;2023-05-20T13:56:00;17.38;;;15.18;;
63499;SDS011;49654;51.142;14.924;2023-05-20T13:58:28;18.75;;;16.85;;
63499;SDS011;49654;51.142;14.924;2023-05-20T14:00:55;16.40;;;14.10;;
63499;SDS011;49654;51.142;14.924;2023-05-20T14:03:23;17.95;;;16.10;;
63499;SDS011;49654;51.142;14.924;2023-05-20T14:05:50;19.92;;;16.77;;
63499;SDS011;49654;51.142;14.924;2023-05-20T14:08:17;19.58;;;17.35;;
63499;SDS011;49654;51.142;14.924;2023-05-20T14:10:44;19.17;;;17.08;;
63499;SDS011;49654;51.142;14.924;2023-05-20T14:13:11;19.92;;;17.73;;